Nearby METAR Reports

 

RPLL - Ninoy Aquino Int, Philippines
Distance from station: S 15km
Updated: 06/17/2021 6:00am
Partly cloudy
Partly cloudy
 Wind from varies
Wind: varies 4 km/h
Temperature: 28°C
Heat Index: 32°C
Dew Point: 25°C
Humidity: 84%
Barometer: 1011 hPa
Clouds: Partly cloudy
Visibility: 10 km
Cloud details: Few Clouds 762 m
Partly cloudy 9144 m
2021/06/16 22:00 RPLL 162200Z VRB02KT 9999 FEW025 SCT300 28/25 Q1011 NOSIG RMK A2985
RPLC - Angeles/Pampanga, Philippines
Distance from station: NW 71km
Updated: 06/17/2021 6:00am
Mostly cloudy
Mostly cloudy
 Wind from WSW
Wind: WSW 4 km/h
Temperature: 26°C
Dew Point: 24°C
Humidity: 89%
Barometer: 1012 hPa
Clouds: Mostly cloudy
Visibility: 10 km
Cloud details: Few Clouds 610 m
Mostly cloudy 9144 m
2021/06/16 22:00 RPLC 162200Z 25002KT 9999 FEW020 BKN300 26/24 Q1012 NOSIG RMK A2988
 
RPLB - Olongapo/Subic, Philippines
Distance from station: WNW 78km
Updated: 06/17/2021 6:00am
Mostly cloudy
Mostly cloudy
 Wind from ENE
Wind: ENE 6 km/h
Temperature: 25°C
Dew Point: 23°C
Humidity: 89%
Barometer: 1012 hPa
Clouds: Mostly cloudy
Visibility: 10 km
Cloud details: Few Clouds 610 m
Mostly cloudy 9144 m
2021/06/16 22:00 RPLB 162200Z 06003KT 9999 FEW020 BKN300 25/23 Q1012 NOSIG RMK A2988
RPMR - Romblon/Tablas I, Philippines
Distance from station: SSE 270km
Updated: 06/16/2021 5:00pm
NOT Current
Light rain, Overcast
Light rain, Overcast
 Wind from WNW
Wind: WNW 6 km/h
Temperature: 24°C
Dew Point: 23°C
Humidity: 94%
Barometer: 1011 hPa
Summary: Light rain
Clouds: Overcast
Visibility: 10 km
Cloud details: Partly cloudy 457 m
Overcast 2438 m
2021/06/16 09:00 RPMR 160900Z 30003KT 270V350 9999 -RA SCT015 OVC080 24/23 Q1011 RMK A2985
 
RPLI - Laoag Intl(Ph-Ar, Philippines
Distance from station: N 394km
Updated: 06/17/2021 6:00am
Partly cloudy
Partly cloudy
 Wind from SE
Wind: SE 4 km/h
Temperature: 26°C
Dew Point: 24°C
Humidity: 89%
Barometer: 1010 hPa
Clouds: Partly cloudy
Visibility: 10 km
Cloud details: Few Clouds 549 m
Partly cloudy 8839 m
2021/06/16 22:00 RPLI 162200Z 13002KT 9999 FEW018 SCT290 26/24 Q1010 NOSIG RMK A2983
RPVM - Mactan-Cebu, Philippines
Distance from station: SE 582km
Updated: 06/17/2021 6:00am
Mostly cloudy
Mostly cloudy
 Wind from W
Wind: W 4 km/h
Temperature: 26°C
Dew Point: 24°C
Humidity: 89%
Barometer: 1012 hPa
Clouds: Mostly cloudy
Visibility: 10 km
Cloud details: Few Clouds 610 m
Mostly cloudy 3048 m
2021/06/16 22:00 RPVM 162200Z 28002KT 9999 FEW020 BKN100 26/24 Q1012 RMK A2988
 
RPVP - Puerto Princesa, Philippines
Distance from station: SSW 598km
Updated: 06/17/2021 6:00am
Mostly cloudy
Mostly cloudy
 Wind from W
Wind: W 7 km/h
Temperature: 26°C
Dew Point: 24°C
Humidity: 89%
Barometer: 1011 hPa
Clouds: Mostly cloudy
Visibility: 10 km
Cloud details: Few Clouds 579 m
Mostly cloudy 7620 m
2021/06/16 22:00 RPVP 162200Z 27004KT 9999 FEW019 BKN250 26/24 Q1011 RESHRA RMK A2985
RPVD - Dumaguete/Negros, Philippines
Distance from station: SSE 643km
Updated: 06/17/2021 6:00am
Few Clouds
Few Clouds
 Wind from W
Wind: W 7 km/h
Temperature: 25°C
Dew Point: 23°C
Humidity: 89%
Barometer: 1012 hPa
Clouds: Few Clouds
Visibility: 10 km
Cloud details: Few Clouds 457 m
2021/06/16 22:00 RPVD 162200Z 27004KT 9999 FEW015 25/23 Q1012 RMK A2988
 
RPMZ - Zamboanga (civ/A, Philippines
Distance from station: S 868km
Updated: 06/17/2021 6:00am
Mostly cloudy
Mostly cloudy
 Wind from varies
Wind: varies 4 km/h
Temperature: 26°C
Dew Point: 24°C
Humidity: 89%
Barometer: 1012 hPa
Clouds: Mostly cloudy
Visibility: 10 km
Cloud details: Few Clouds 488 m
Few Clouds 518 m
Mostly cloudy 2743 m
2021/06/16 22:00 RPMZ 162200Z VRB02KT 9999 FEW016CB FEW017 BKN090 26/24 Q1012 RMK A2988 CB W-NE
RPMD - Davao/Francisco, Philippines
Distance from station: SSE 980km
Updated: 06/17/2021 6:00am
Nearby showers, Mostly cloudy
Nearby showers, Mostly cloudy
 Wind from varies
Wind: varies 4 km/h
Temperature: 25°C
Dew Point: 25°C
Humidity: 100%
Barometer: 1012 hPa
Summary: Nearby Showers
Clouds: Mostly cloudy
Visibility: 10 km
Cloud details: Partly cloudy 457 m
Mostly cloudy 2743 m
Mostly cloudy 7925 m
2021/06/16 22:00 RPMD 162200Z VRB02KT 9999 VCSH SCT015 BKN090 BKN260 25/25 Q1012 RMK A2988 VCSH N-S